Time;durP1;ratioP1;P1;durP2;ratioP2;P2;SDS_P1;SDS_P2;PMS_P1;PMS_P2;Temp;Humidity;BMP_temperature;BMP_pressure;BME280_temperature;BME280_humidity;BME280_pressure;Samples;Min_cycle;Max_cycle;Signal;HPM_P1;HPM_P2
2022/11/01 00:01:37;;;;;;;18.90;5.75;;;;;;;15.21;81.12;100780.66;6247946;23;20008;-62
2022/11/01 00:04:03;;;;;;;12.80;6.20;;;;;;;15.22;80.77;100773.56;6247883;23;20036;-63
2022/11/01 00:06:28;;;;;;;18.25;6.05;;;;;;;15.25;80.95;100763.75;6247867;23;20058;-63
2022/11/01 00:08:54;;;;;;;17.50;5.78;;;;;;;15.27;81.07;100767.28;6247859;23;20395;-64
2022/11/01 00:11:19;;;;;;;15.82;6.15;;;;;;;15.34;81.24;100759.25;6247819;23;20031;-63
2022/11/01 00:13:47;;;;;;;16.60;5.82;;;;;;;15.42;81.02;100763.59;6247732;23;20043;-63
2022/11/01 00:16:13;;;;;;;12.98;5.13;;;;;;;15.47;80.91;100758.22;6247684;23;20028;-62
2022/11/01 00:18:38;;;;;;;16.25;5.55;;;;;;;15.51;81.11;100749.31;6248008;23;20004;-64
2022/11/01 00:21:04;;;;;;;15.63;5.40;;;;;;;15.58;80.83;100758.09;6247696;23;20004;-63
2022/11/01 00:23:29;;;;;;;11.38;4.88;;;;;;;15.64;80.96;100756.28;6247961;23;20103;-63
2022/11/01 00:25:58;;;;;;;16.98;5.22;;;;;;;15.76;80.96;100747.28;6247658;23;20436;-63
2022/11/01 00:28:24;;;;;;;14.80;5.40;;;;;;;15.84;80.69;100760.47;6247305;23;20049;-62
2022/11/01 00:30:54;;;;;;;12.20;5.20;;;;;;;15.90;80.91;100745.31;6247621;23;20335;-63
2022/11/01 00:33:20;;;;;;;9.70;4.85;;;;;;;16.01;80.75;100747.81;6247901;23;20000;-63
2022/11/01 00:35:47;;;;;;;14.65;4.93;;;;;;;16.13;80.37;100754.78;6247518;23;20032;-63
2022/11/01 00:38:13;;;;;;;10.98;4.20;;;;;;;16.25;79.73;100744.84;6247436;23;20004;-63
2022/11/01 00:40:39;;;;;;;11.40;4.90;;;;;;;16.33;79.82;100750.06;6247232;23;20011;-63
2022/11/01 00:43:04;;;;;;;10.70;5.00;;;;;;;16.39;79.43;100739.28;6247542;23;20079;-64
2022/11/01 00:45:30;;;;;;;16.35;4.40;;;;;;;16.46;79.18;100753.44;6220577;23;20054;-64
2022/11/01 00:47:55;;;;;;;16.75;4.88;;;;;;;16.48;78.83;100752.47;6247653;23;20083;-64
2022/11/01 00:50:21;;;;;;;11.70;4.60;;;;;;;16.49;78.94;100748.94;6247749;23;20500;-63
2022/11/01 00:52:46;;;;;;;13.65;4.60;;;;;;;16.48;78.82;100741.81;6247314;23;20008;-63
2022/11/01 00:55:12;;;;;;;9.80;4.43;;;;;;;16.51;78.63;100749.78;6247622;23;20086;-64
2022/11/01 00:57:37;;;;;;;13.23;4.68;;;;;;;16.51;78.85;100739.09;6247684;23;20086;-62
2022/11/01 01:00:04;;;;;;;11.23;4.72;;;;;;;16.52;79.05;100726.66;6247640;23;20331;-63
2022/11/01 01:02:30;;;;;;;10.35;4.50;;;;;;;16.53;79.13;100733.78;6221232;23;20008;-63
2022/11/01 01:04:55;;;;;;;14.05;4.85;;;;;;;16.58;79.04;100713.22;6247114;23;20464;-63
2022/11/01 01:07:20;;;;;;;14.15;4.90;;;;;;;16.63;78.98;100722.03;6247160;23;20042;-64
2022/11/01 01:09:46;;;;;;;14.63;5.30;;;;;;;16.68;78.96;100711.28;6247334;23;20014;-63
2022/11/01 01:12:11;;;;;;;13.18;4.43;;;;;;;16.69;79.04;100739.72;6220346;23;20008;-63
2022/11/01 01:14:37;;;;;;;8.93;4.45;;;;;;;16.71;78.93;100729.94;6247343;23;20032;-62
2022/11/01 01:17:03;;;;;;;7.63;3.95;;;;;;;16.71;78.92;100713.91;6247479;23;20476;-63
2022/11/01 01:19:29;;;;;;;13.93;4.60;;;;;;;16.72;78.82;100723.66;6247334;23;20327;-63
2022/11/01 01:21:55;;;;;;;11.50;4.65;;;;;;;16.74;79.18;100717.44;6247072;23;20004;-63
2022/11/01 01:24:21;;;;;;;13.57;4.95;;;;;;;16.76;79.02;100726.28;6247411;23;20053;-63
2022/11/01 01:26:46;;;;;;;17.58;4.80;;;;;;;16.69;79.46;100716.59;6246755;23;20426;-63
2022/11/01 01:29:12;;;;;;;8.25;4.63;;;;;;;16.66;79.63;100727.34;6247474;23;20014;-63
2022/11/01 01:31:37;;;;;;;15.20;4.60;;;;;;;16.67;79.89;100723.75;6247332;23;20414;-66
2022/11/01 01:34:03;;;;;;;11.48;4.90;;;;;;;16.67;80.27;100738.88;6246943;23;20442;-64
2022/11/01 01:36:28;;;;;;;12.80;5.63;;;;;;;16.69;79.96;100729.94;6247034;23;20004;-63
2022/11/01 01:38:53;;;;;;;13.25;4.65;;;;;;;16.71;80.15;100725.47;6246975;23;20013;-63
2022/11/01 01:44:41;;;;;;;13.10;4.40;;;;;;;16.70;80.18;100722.78;6247145;23;20015;-63
2022/11/01 01:47:08;;;;;;;11.90;4.57;;;;;;;16.67;80.46;100742.44;6246932;23;20079;-63
2022/11/01 01:49:34;;;;;;;9.13;4.45;;;;;;;16.66;80.62;100722.00;6246908;23;20011;-62
2022/11/01 01:51:59;;;;;;;11.25;4.93;;;;;;;16.68;80.72;100727.28;6247057;23;20005;-64
2022/11/01 01:54:25;;;;;;;8.80;5.00;;;;;;;16.68;80.87;100716.63;6247088;23;20419;-62
2022/11/01 01:56:50;;;;;;;14.25;5.10;;;;;;;16.68;80.95;100713.97;6219862;23;20008;-63
2022/11/01 01:59:16;;;;;;;12.73;4.68;;;;;;;16.70;80.95;100706.78;6246775;23;20000;-63
2022/11/01 02:01:41;;;;;;;10.52;4.50;;;;;;;16.71;81.01;100708.56;6246812;23;20498;-64
2022/11/01 02:04:52;;;;;;;10.65;4.85;;;;;;;16.79;80.67;100725.38;6219810;23;20091;-63
2022/11/01 02:07:18;;;;;;;14.13;4.50;;;;;;;16.85;80.53;100719.03;6124495;23;20064;-63
2022/11/01 02:09:44;;;;;;;11.68;4.38;;;;;;;16.89;80.22;100724.31;6100000;23;20014;-63
2022/11/01 02:12:11;;;;;;;10.27;4.35;;;;;;;16.93;80.23;100709.13;6186980;23;20327;-63
2022/11/01 02:14:41;;;;;;;11.43;4.93;;;;;;;16.95;79.91;100701.94;6246493;23;20007;-63
2022/11/01 02:17:19;;;;;;;11.93;5.00;;;;;;;16.93;80.10;100712.66;6246276;23;20049;-62
2022/11/01 02:20:03;;;;;;;10.55;4.53;;;;;;;16.95;79.77;100701.94;6246660;23;20008;-64
2022/11/01 02:22:37;;;;;;;12.25;4.88;;;;;;;16.97;79.75;100705.50;6246862;23;20075;-63
2022/11/01 02:25:20;;;;;;;12.35;4.43;;;;;;;16.96;80.20;100717.97;6246641;23;20004;-63
2022/11/01 02:28:09;;;;;;;9.10;4.30;;;;;;;16.96;80.00;100722.41;6246330;23;20016;-63
2022/11/01 02:31:13;;;;;;;8.18;4.22;;;;;;;16.95;80.09;100717.97;6225032;23;20083;-64
2022/11/01 02:33:44;;;;;;;9.02;4.00;;;;;;;16.89;80.30;100721.63;6246336;23;20008;-63
2022/11/01 02:36:31;;;;;;;10.95;4.43;;;;;;;16.86;80.43;100721.69;6246683;23;20374;-64
2022/11/01 02:39:03;;;;;;;13.52;4.88;;;;;;;16.88;80.02;100711.88;6246737;23;20014;-64
2022/11/01 02:41:38;;;;;;;11.70;4.15;;;;;;;16.90;79.88;100730.53;6246278;23;20035;-63
2022/11/01 02:44:11;;;;;;;11.00;4.18;;;;;;;16.89;79.79;100710.97;6246607;23;20023;-63
2022/11/01 02:49:27;;;;;;;14.77;4.57;;;;;;;16.85;80.35;100729.72;6246326;23;20457;-63
2022/11/01 02:51:54;;;;;;;13.88;4.43;;;;;;;16.84;80.41;100734.19;6246258;23;20001;-63
2022/11/01 02:54:44;;;;;;;10.18;4.47;;;;;;;16.84;80.52;100733.31;6246482;23;20334;-63
2022/11/01 02:57:15;;;;;;;9.77;4.50;;;;;;;16.80;80.72;100726.25;6228131;23;20011;-65
2022/11/01 02:59:44;;;;;;;10.00;4.43;;;;;;;16.79;80.80;100741.38;6246232;23;20079;-63
2022/11/01 03:02:17;;;;;;;11.05;4.60;;;;;;;16.76;80.93;100742.31;6246171;23;20000;-63
2022/11/01 03:04:43;;;;;;;10.73;3.97;;;;;;;16.74;81.01;100736.13;6246501;23;20062;-63
2022/11/01 03:07:12;;;;;;;12.57;4.32;;;;;;;16.74;81.00;100738.81;6246324;23;20083;-63
2022/11/01 03:09:39;;;;;;;9.40;4.68;;;;;;;16.74;81.15;100746.81;6246190;23;20446;-64
2022/11/01 03:12:18;;;;;;;9.38;4.60;;;;;;;16.74;81.02;100748.56;6246096;23;20008;-63
2022/11/01 03:14:55;;;;;;;10.00;4.18;;;;;;;16.71;80.85;100765.50;6245954;23;20445;-63
2022/11/01 03:17:40;;;;;;;11.88;4.38;;;;;;;16.75;81.04;100764.56;6246078;23;20423;-63
2022/11/01 03:20:13;;;;;;;10.07;4.78;;;;;;;16.74;81.24;100764.56;6246082;23;20004;-64
2022/11/01 03:22:46;;;;;;;9.05;4.25;;;;;;;16.70;81.12;100769.06;6246453;23;20008;-62
2022/11/01 03:28:19;;;;;;;13.80;4.65;;;;;;;16.70;81.05;100769.06;6245712;23;20027;-63
2022/11/01 03:30:51;;;;;;;10.03;4.70;;;;;;;16.69;81.24;100785.09;6245935;23;20522;-63
2022/11/01 03:33:18;;;;;;;12.10;4.40;;;;;;;16.65;81.12;100784.25;6246066;23;20493;-64
2022/11/01 03:35:49;;;;;;;10.25;4.00;;;;;;;16.65;79.22;100792.25;6246001;23;20004;-63
2022/11/01 03:38:22;;;;;;;8.55;3.70;;;;;;;16.62;78.11;100789.66;6246101;23;20457;-64
2022/11/01 03:40:59;;;;;;;6.85;3.20;;;;;;;16.58;75.45;100803.06;6245932;23;20008;-63
2022/11/01 03:43:26;;;;;;;6.20;3.10;;;;;;;16.55;72.69;100795.97;6246081;23;20008;-63
2022/11/01 03:45:53;;;;;;;7.25;2.72;;;;;;;16.53;71.13;100805.78;6246140;23;20015;-63
2022/11/01 03:48:19;;;;;;;9.45;2.88;;;;;;;16.52;70.58;100802.22;6219308;23;20062;-63
2022/11/01 03:50:49;;;;;;;7.03;2.53;;;;;;;16.46;70.26;100813.00;6246019;23;20008;-65
2022/11/01 03:53:15;;;;;;;7.32;2.50;;;;;;;16.40;69.80;100806.84;6219163;23;20011;-63
2022/11/01 03:55:42;;;;;;;5.22;2.72;;;;;;;16.35;69.05;100827.34;6246118;23;20090;-63
2022/11/01 03:58:08;;;;;;;5.07;2.33;;;;;;;16.30;67.77;100843.41;6245896;23;20476;-63
2022/11/01 04:00:37;;;;;;;7.95;2.50;;;;;;;16.23;67.50;100834.63;6245810;23;20008;-64
2022/11/01 04:03:03;;;;;;;4.50;2.17;;;;;;;16.17;67.12;100840.03;6246173;23;20005;-63
2022/11/01 04:05:30;;;;;;;5.60;2.00;;;;;;;16.14;66.38;100837.38;6245938;23;20462;-63
2022/11/01 04:07:56;;;;;;;6.25;1.90;;;;;;;16.09;65.53;100852.56;6245810;23;20011;-63
2022/11/01 04:10:23;;;;;;;5.47;1.90;;;;;;;16.01;65.31;100855.31;6245893;23;20012;-63
2022/11/01 04:12:49;;;;;;;3.70;1.70;;;;;;;15.99;63.45;100862.47;6245780;23;20004;-63
2022/11/01 04:21:08;;;;;;;4.43;1.70;;;;;;;15.84;62.02;100896.38;6245937;23;20070;-63
2022/11/01 04:23:33;;;;;;;5.75;1.52;;;;;;;15.79;62.28;100901.75;6246113;23;20054;-63
2022/11/01 04:25:59;;;;;;;3.97;1.70;;;;;;;15.70;62.90;100899.19;6246093;23;20323;-63
2022/11/01 04:28:24;;;;;;;5.30;1.95;;;;;;;15.60;63.39;100911.69;6245368;23;20430;-63
2022/11/01 04:30:50;;;;;;;4.13;1.70;;;;;;;15.52;63.75;100913.53;6245685;23;20079;-63
2022/11/01 04:33:15;;;;;;;6.50;1.80;;;;;;;15.43;64.16;100919.81;6246095;23;20012;-64
2022/11/01 04:35:41;;;;;;;7.50;1.60;;;;;;;15.39;64.19;100928.72;6245576;23;20012;-62
2022/11/01 04:38:08;;;;;;;7.97;1.40;;;;;;;15.32;64.08;100929.63;6246029;23;20011;-63
2022/11/01 04:40:34;;;;;;;5.28;1.70;;;;;;;15.24;64.16;100932.34;6247121;23;20043;-63
2022/11/01 04:42:59;;;;;;;6.32;1.75;;;;;;;15.19;64.22;100939.50;6247450;23;20004;-63
2022/11/01 04:45:25;;;;;;;3.80;1.48;;;;;;;15.14;64.45;100951.06;6220632;23;20431;-64
2022/11/01 04:48:00;;;;;;;3.30;1.50;;;;;;;15.08;65.11;100946.69;6247402;23;20039;-64
2022/11/01 04:50:25;;;;;;;3.65;1.70;;;;;;;15.01;64.63;100955.59;6247426;23;20012;-63
2022/11/01 04:52:51;;;;;;;4.78;1.75;;;;;;;14.96;64.63;100958.28;6247433;23;20059;-63
2022/11/01 04:55:16;;;;;;;4.30;1.50;;;;;;;14.93;64.64;100971.59;6247274;23;20011;-63
2022/11/01 04:57:42;;;;;;;4.38;1.52;;;;;;;14.88;64.68;100969.84;6247327;23;20079;-63
2022/11/01 05:00:10;;;;;;;5.57;1.52;;;;;;;14.85;64.71;100981.38;6247606;23;20004;-63
2022/11/01 05:02:35;;;;;;;4.63;1.50;;;;;;;14.83;64.69;100988.50;6247515;23;20008;-63
2022/11/01 05:05:01;;;;;;;4.55;1.35;;;;;;;14.80;64.63;101003.59;6247281;23;20016;-64
2022/11/01 05:07:27;;;;;;;6.53;1.80;;;;;;;14.76;64.57;101008.91;6220355;23;20004;-63
2022/11/01 05:09:52;;;;;;;4.97;1.58;;;;;;;14.75;64.64;101007.16;6246967;23;20430;-64
2022/11/01 05:12:18;;;;;;;5.75;1.70;;;;;;;14.68;65.13;101026.66;6247293;23;20035;-64
2022/11/01 05:14:43;;;;;;;7.95;1.60;;;;;;;14.67;65.18;101024.03;6247359;23;20031;-63
2022/11/01 05:17:09;;;;;;;7.35;1.52;;;;;;;14.63;65.04;101024.91;6247180;23;20031;-63
2022/11/01 05:19:34;;;;;;;7.13;1.63;;;;;;;14.59;65.27;101032.00;6247477;23;20048;-63
2022/11/01 05:21:59;;;;;;;6.82;1.58;;;;;;;14.56;65.26;101036.44;6247397;23;20019;-64
2022/11/01 05:24:25;;;;;;;3.78;1.48;;;;;;;14.51;65.65;101047.97;6247025;23;20335;-62
2022/11/01 05:26:50;;;;;;;4.72;1.58;;;;;;;14.43;65.86;101040.88;6219832;23;20022;-63
2022/11/01 05:29:16;;;;;;;2.42;1.40;;;;;;;14.39;65.57;101040.03;6247333;23;20016;-63
2022/11/01 05:31:41;;;;;;;3.08;1.35;;;;;;;14.32;66.02;101048.00;6246962;23;20419;-63
2022/11/01 05:34:06;;;;;;;4.68;1.60;;;;;;;14.28;65.79;101044.47;6246794;23;20019;-63
2022/11/01 05:36:32;;;;;;;4.50;1.42;;;;;;;14.27;66.04;101054.22;6246563;23;20335;-63
2022/11/01 05:38:58;;;;;;;6.32;1.60;;;;;;;14.23;65.93;101051.56;6246902;23;20087;-63
2022/11/01 05:41:24;;;;;;;3.85;1.45;;;;;;;14.21;66.00;101043.56;6246900;23;20011;-63
2022/11/01 05:43:49;;;;;;;6.40;1.75;;;;;;;14.20;66.34;101048.91;6220496;23;20019;-64
2022/11/01 05:46:15;;;;;;;5.35;1.80;;;;;;;14.15;66.63;101056.88;6246798;23;20012;-63
2022/11/01 05:48:41;;;;;;;3.88;1.83;;;;;;;14.10;67.37;101057.78;6247096;23;20087;-63
2022/11/01 05:51:07;;;;;;;4.45;1.38;;;;;;;14.11;67.11;101070.16;6246869;23;20032;-62
2022/11/01 05:53:33;;;;;;;4.43;1.67;;;;;;;14.00;67.79;101068.41;6246623;23;20008;-63
2022/11/01 05:55:58;;;;;;;4.32;1.40;;;;;;;14.00;67.08;101063.09;6219581;23;20012;-63
2022/11/01 05:58:24;;;;;;;4.00;1.70;;;;;;;13.97;66.99;101071.06;6246865;23;20004;-62
2022/11/01 06:00:55;;;;;;;5.03;1.60;;;;;;;13.94;66.15;101084.31;6246973;23;20008;-64
2022/11/01 06:03:21;;;;;;;4.93;1.93;;;;;;;13.91;66.24;101080.78;6221344;23;20058;-63
2022/11/01 06:05:47;;;;;;;6.65;1.75;;;;;;;13.87;65.49;101089.63;6246664;23;20008;-63
2022/11/01 06:08:12;;;;;;;6.80;1.70;;;;;;;13.83;63.87;101091.38;6219763;23;20008;-62
2022/11/01 06:10:38;;;;;;;8.70;1.80;;;;;;;13.82;63.33;101094.94;6246489;23;20086;-62
2022/11/01 06:13:03;;;;;;;6.47;1.92;;;;;;;13.76;63.97;101087.84;6219700;23;20493;-63
2022/11/01 06:15:29;;;;;;;6.75;1.90;;;;;;;13.74;63.82;101097.56;6246417;23;20004;-63
2022/11/01 06:17:56;;;;;;;7.47;1.92;;;;;;;13.69;64.12;101102.00;6245994;23;20008;-64
2022/11/01 06:20:22;;;;;;;8.00;1.80;;;;;;;13.66;64.40;101111.72;6246860;23;20012;-63
2022/11/01 06:22:47;;;;;;;7.97;1.90;;;;;;;13.61;64.90;101113.47;6246772;23;20066;-64
2022/11/01 06:25:13;;;;;;;8.50;2.00;;;;;;;13.61;65.43;101132.06;6246374;23;20451;-63
2022/11/01 06:27:38;;;;;;;6.13;1.90;;;;;;;13.57;65.92;101112.59;6245873;23;20020;-63
2022/11/01 06:30:04;;;;;;;6.90;1.80;;;;;;;13.56;65.86;101142.69;6194504;23;20015;-63
2022/11/01 06:32:29;;;;;;;7.13;1.58;;;;;;;13.57;66.22;101140.91;6246388;23;20011;-64
2022/11/01 06:34:55;;;;;;;8.00;1.90;;;;;;;13.52;66.48;101132.94;6246245;23;20012;-63
2022/11/01 06:37:20;;;;;;;7.43;1.83;;;;;;;13.49;66.67;101147.09;6246372;23;20012;-62
2022/11/01 06:39:45;;;;;;;6.88;1.80;;;;;;;13.49;66.65;101141.78;6246320;23;20009;-63
2022/11/01 06:42:11;;;;;;;6.15;1.70;;;;;;;13.47;67.01;101134.69;6246416;23;20058;-63
2022/11/01 06:44:36;;;;;;;8.05;1.80;;;;;;;13.42;67.16;101158.56;6246587;23;20004;-63
2022/11/01 06:47:02;;;;;;;9.45;1.92;;;;;;;13.40;67.52;101148.81;6246159;23;20431;-63
2022/11/01 06:49:28;;;;;;;11.70;2.00;;;;;;;13.42;67.76;101160.34;6246635;23;20088;-63
2022/11/01 06:51:53;;;;;;;9.02;1.90;;;;;;;13.40;67.76;101167.38;6246538;23;20008;-63
2022/11/01 06:54:19;;;;;;;5.57;1.80;;;;;;;13.38;67.96;101177.13;6246179;23;20437;-62
2022/11/01 06:56:49;;;;;;;9.43;2.17;;;;;;;13.37;68.20;101181.56;6246173;23;20015;-62
2022/11/01 06:59:15;;;;;;;9.50;2.00;;;;;;;13.34;68.26;101170.91;6246496;23;20377;-63
2022/11/01 07:01:42;;;;;;;7.03;2.10;;;;;;;13.33;68.38;101181.53;6246172;23;20011;-63
2022/11/01 07:04:07;;;;;;;5.82;1.65;;;;;;;13.27;68.84;101177.06;6246467;23;20010;-63
2022/11/01 07:06:33;;;;;;;6.10;2.05;;;;;;;13.24;68.74;101177.06;6246420;23;20036;-62
2022/11/01 07:08:58;;;;;;;7.72;1.90;;;;;;;13.29;68.52;101177.97;6246465;23;20047;-63
2022/11/01 07:11:24;;;;;;;13.43;2.38;;;;;;;13.27;68.63;101196.56;6246200;23;20426;-63
2022/11/01 07:13:49;;;;;;;6.00;1.80;;;;;;;13.32;68.08;101193.00;6245994;23;20008;-63
2022/11/01 07:16:15;;;;;;;8.55;1.90;;;;;;;13.30;68.26;101197.44;6245896;23;20040;-64
2022/11/01 07:18:41;;;;;;;7.57;1.90;;;;;;;13.30;68.34;101200.09;6246063;23;20004;-62
2022/11/01 07:21:07;;;;;;;6.57;1.90;;;;;;;13.27;68.84;101216.88;6246044;23;20008;-63
2022/11/01 07:23:32;;;;;;;8.57;2.00;;;;;;;13.26;68.01;101223.06;6246132;23;20012;-64
2022/11/01 07:25:58;;;;;;;12.20;2.33;;;;;;;13.28;68.08;101226.63;6245971;23;20039;-63
2022/11/01 07:28:24;;;;;;;10.38;2.00;;;;;;;13.32;67.85;101224.84;6245590;23;20016;-64
2022/11/01 07:30:50;;;;;;;10.57;1.88;;;;;;;13.35;66.65;101248.78;6246314;23;20000;-63
2022/11/01 07:33:16;;;;;;;11.23;2.33;;;;;;;13.38;66.86;101240.84;6245970;23;20008;-63
2022/11/01 07:35:42;;;;;;;14.63;2.25;;;;;;;13.42;66.71;101237.31;6245913;23;20015;-63
2022/11/01 07:38:08;;;;;;;8.07;2.10;;;;;;;13.45;66.54;101237.34;6245959;23;20004;-62
2022/11/01 07:40:34;;;;;;;6.40;2.00;;;;;;;13.47;66.31;101241.75;6245704;23;20087;-62
2022/11/01 07:43:00;;;;;;;12.77;2.97;;;;;;;13.51;65.33;101251.53;6245712;23;20004;-63
2022/11/01 07:45:28;;;;;;;9.98;2.20;;;;;;;13.61;65.31;101257.75;6246242;23;20004;-63
2022/11/01 07:47:58;;;;;;;12.95;2.42;;;;;;;13.69;65.48;101264.00;6245934;23;20082;-64
2022/11/01 07:50:24;;;;;;;11.20;2.47;;;;;;;13.78;64.89;101250.75;6245879;23;20369;-62
2022/11/01 07:53:08;;;;;;;13.35;2.50;;;;;;;13.94;64.48;101254.34;6245922;23;20087;-63
2022/11/01 07:55:34;;;;;;;14.60;2.50;;;;;;;14.04;64.06;101256.16;6245829;23;20442;-63
2022/11/01 07:58:00;;;;;;;14.75;2.53;;;;;;;14.14;63.88;101253.53;6219011;23;20004;-63
2022/11/01 08:00:26;;;;;;;11.60;2.30;;;;;;;14.28;63.47;101267.75;6245861;23;20015;-63
2022/11/01 08:02:58;;;;;;;10.80;2.30;;;;;;;14.43;62.81;101281.09;6245879;23;20016;-63
2022/11/01 08:05:24;;;;;;;12.95;2.75;;;;;;;14.50;62.38;101268.72;6245896;23;20100;-63
2022/11/01 08:07:49;;;;;;;8.88;2.00;;;;;;;14.66;61.47;101277.59;6246100;23;20028;-63
2022/11/01 08:10:14;;;;;;;10.38;2.38;;;;;;;14.75;61.66;101283.81;6218805;23;20423;-63
2022/11/01 08:12:40;;;;;;;13.65;2.63;;;;;;;14.89;60.67;101291.78;6245756;23;20009;-62
2022/11/01 08:15:06;;;;;;;9.30;2.35;;;;;;;14.98;60.69;101277.59;6247103;23;20035;-63
2022/11/01 08:17:34;;;;;;;12.52;2.40;;;;;;;15.17;60.58;101282.03;6247557;23;20008;-62
2022/11/01 08:20:01;;;;;;;9.20;2.30;;;;;;;15.32;59.46;101289.09;6247657;23;20001;-63
2022/11/01 08:22:26;;;;;;;11.57;2.25;;;;;;;15.38;58.38;101293.53;6247653;23;20028;-63
2022/11/01 08:24:51;;;;;;;9.52;2.47;;;;;;;15.35;58.66;101294.41;6247634;23;20350;-62
2022/11/01 08:27:17;;;;;;;10.82;2.60;;;;;;;15.30;58.70;101308.63;6247374;23;20095;-63
2022/11/01 08:29:42;;;;;;;8.95;2.33;;;;;;;15.35;58.36;101289.09;6247682;23;20027;-63
2022/11/01 08:32:08;;;;;;;13.52;3.00;;;;;;;15.51;58.18;101313.94;6247593;23;20012;-62
2022/11/01 08:34:33;;;;;;;10.48;2.58;;;;;;;15.64;58.31;101314.78;6247560;23;20014;-63
2022/11/01 08:36:59;;;;;;;14.00;2.83;;;;;;;15.65;57.50;101308.59;6247438;23;20039;-64
2022/11/01 08:39:25;;;;;;;12.23;2.47;;;;;;;15.70;57.63;101306.81;6247874;23;20012;-63
2022/11/01 08:41:51;;;;;;;11.40;2.35;;;;;;;15.74;56.94;101321.88;6247300;23;20427;-62
2022/11/01 08:44:18;;;;;;;11.15;2.30;;;;;;;15.73;56.86;101320.13;6247763;23;20031;-63
2022/11/01 08:46:44;;;;;;;11.63;2.65;;;;;;;15.81;56.35;101318.31;6247607;23;20019;-63
2022/11/01 08:49:10;;;;;;;13.90;2.70;;;;;;;15.83;56.29;101324.53;6246226;23;20419;-63
2022/11/01 08:51:35;;;;;;;14.77;2.65;;;;;;;15.96;55.55;101317.38;6247351;23;20015;-62
2022/11/01 08:54:01;;;;;;;12.43;2.95;;;;;;;16.14;56.21;101314.63;6220649;23;20083;-63
2022/11/01 08:56:27;;;;;;;14.00;3.00;;;;;;;16.17;55.98;101319.06;6247588;23;20027;-62
2022/11/01 08:58:54;;;;;;;15.27;2.80;;;;;;;16.22;55.20;101325.25;6247658;23;20054;-63
2022/11/01 09:01:25;;;;;;;11.40;2.70;;;;;;;16.24;54.98;101324.38;6247627;23;20091;-63
2022/11/01 09:03:54;;;;;;;15.27;2.93;;;;;;;16.24;55.58;101331.47;6247673;23;20028;-64
2022/11/01 09:06:20;;;;;;;14.27;2.60;;;;;;;16.37;55.48;101329.63;6247183;23;20246;-63
2022/11/01 09:08:45;;;;;;;12.50;2.97;;;;;;;16.44;55.00;101328.69;6247223;23;20027;-62
2022/11/01 09:11:10;;;;;;;7.68;2.40;;;;;;;16.57;54.99;101346.41;6247045;23;20463;-63
2022/11/01 09:13:36;;;;;;;12.65;2.67;;;;;;;16.59;54.62;101341.06;6247142;23;20101;-62
2022/11/01 09:16:07;;;;;;;11.93;3.25;;;;;;;16.63;54.81;101338.38;6247041;23;20008;-62
2022/11/01 09:18:33;;;;;;;13.10;2.77;;;;;;;16.57;54.95;101330.38;6247153;23;20091;-63
2022/11/01 09:20:59;;;;;;;14.38;2.65;;;;;;;16.56;54.68;101325.94;6247546;23;20231;-63
2022/11/01 09:23:24;;;;;;;11.25;2.80;;;;;;;16.45;54.92;101344.72;6247077;23;20051;-62
2022/11/01 09:25:49;;;;;;;10.27;2.70;;;;;;;16.31;55.07;101337.66;6246911;23;20012;-62
2022/11/01 09:28:15;;;;;;;9.95;2.67;;;;;;;16.39;55.56;101330.50;6246773;23;20062;-61
2022/11/01 09:30:40;;;;;;;10.10;2.38;;;;;;;16.37;54.72;101365.19;6247093;23;20046;-63
2022/11/01 09:33:06;;;;;;;13.05;2.60;;;;;;;16.51;55.07;101344.66;6247042;23;20019;-64
2022/11/01 09:35:33;;;;;;;14.88;2.60;;;;;;;16.70;54.25;101341.88;6246719;23;20415;-63
2022/11/01 09:38:00;;;;;;;10.70;2.80;;;;;;;16.84;54.86;101350.72;6247056;23;20306;-63
2022/11/01 09:40:47;;;;;;;16.88;2.60;;;;;;;17.09;54.13;101356.78;6246976;23;20004;-63
2022/11/01 09:43:22;;;;;;;13.75;2.70;;;;;;;16.99;53.78;101360.38;6220062;23;20020;-63
2022/11/01 09:45:51;;;;;;;10.35;2.65;;;;;;;17.07;53.62;101371.91;6247094;23;20007;-63
2022/11/01 09:48:17;;;;;;;16.52;2.80;;;;;;;17.10;53.86;101385.25;6247131;23;20011;-63
2022/11/01 09:50:44;;;;;;;17.13;2.75;;;;;;;16.96;53.54;101392.47;6246815;23;20032;-63
2022/11/01 09:53:28;;;;;;;18.77;3.15;;;;;;;17.03;54.29;101383.50;6246863;23;20322;-63
2022/11/01 09:56:11;;;;;;;12.07;2.85;;;;;;;17.12;54.15;101404.78;6247041;23;20081;-63
2022/11/01 09:58:48;;;;;;;10.77;2.45;;;;;;;17.21;54.13;101387.81;6247151;23;20008;-63
2022/11/01 10:01:42;;;;;;;11.15;2.42;;;;;;;17.40;54.00;101399.25;6246694;23;20492;-63
2022/11/01 10:04:50;;;;;;;11.70;2.65;;;;;;;17.57;53.83;101397.31;6246422;23;20000;-63
2022/11/01 10:07:44;;;;;;;9.35;2.63;;;;;;;17.72;53.01;101406.97;6247058;23;20008;-63
2022/11/01 10:10:38;;;;;;;13.68;2.72;;;;;;;17.83;52.98;101414.91;6220066;23;20061;-63
2022/11/01 10:13:35;;;;;;;10.20;2.85;;;;;;;17.97;52.40;101435.25;6247002;23;20008;-62
2022/11/01 10:16:20;;;;;;;12.18;2.47;;;;;;;17.96;51.62;101419.25;6246856;23;20004;-63
2022/11/01 10:19:03;;;;;;;13.18;2.95;;;;;;;18.00;51.68;101419.19;6246638;23;20482;-63
2022/11/01 10:21:41;;;;;;;11.10;2.60;;;;;;;17.85;52.37;101419.34;6246503;23;20087;-63
2022/11/01 10:24:22;;;;;;;11.95;2.63;;;;;;;17.61;53.19;101422.22;6246506;23;20004;-64
2022/11/01 10:26:52;;;;;;;12.45;2.63;;;;;;;17.47;53.09;101425.00;6246493;23;20015;-63
2022/11/01 10:29:21;;;;;;;10.32;2.75;;;;;;;17.46;53.15;101417.88;6246333;23;20012;-62
2022/11/01 10:31:50;;;;;;;10.88;2.67;;;;;;;17.56;53.68;101416.00;6246407;23;20011;-63
2022/11/01 10:34:20;;;;;;;9.65;2.72;;;;;;;17.92;53.11;101418.38;6246309;23;20004;-63
2022/11/01 10:36:48;;;;;;;11.13;3.17;;;;;;;17.90;52.43;101419.28;6245833;23;20008;-63
2022/11/01 10:39:28;;;;;;;13.63;2.75;;;;;;;18.09;52.32;101418.19;6246310;23;20399;-62
2022/11/01 10:41:54;;;;;;;10.93;2.45;;;;;;;18.31;51.30;101417.94;6246486;23;20008;-63
2022/11/01 10:44:30;;;;;;;8.95;2.60;;;;;;;18.51;50.41;101429.31;6246242;23;20023;-62
2022/11/01 10:46:58;;;;;;;13.98;3.00;;;;;;;18.31;51.32;101432.22;6246690;23;20004;-63
2022/11/01 10:49:28;;;;;;;12.60;2.67;;;;;;;18.42;51.83;101426.75;6246587;23;20032;-63
2022/11/01 10:52:00;;;;;;;14.95;2.80;;;;;;;18.52;51.16;101421.25;6246624;23;20466;-63
2022/11/01 10:54:28;;;;;;;11.85;2.78;;;;;;;18.63;49.94;101420.19;6246363;23;20087;-64
2022/11/01 10:56:59;;;;;;;11.48;2.38;;;;;;;18.79;50.06;101429.84;6246136;23;20004;-63
2022/11/01 10:59:43;;;;;;;9.55;2.70;;;;;;;18.74;50.22;101427.22;6246612;23;20004;-62
2022/11/01 11:02:22;;;;;;;11.43;2.67;;;;;;;18.73;50.05;101432.63;6246467;23;20008;-63
2022/11/01 11:04:48;;;;;;;12.00;2.75;;;;;;;18.75;49.44;101439.69;6246277;23;20054;-63
2022/11/01 11:07:16;;;;;;;11.38;2.65;;;;;;;18.65;49.51;101437.16;6246437;23;20016;-63
2022/11/01 11:09:41;;;;;;;8.43;2.80;;;;;;;18.86;49.34;101442.25;6246442;23;20000;-63
2022/11/01 11:12:14;;;;;;;13.02;2.78;;;;;;;18.65;49.50;101434.47;6245937;23;20011;-64
2022/11/01 11:14:41;;;;;;;13.20;2.63;;;;;;;18.57;50.11;101418.50;6246541;23;20011;-63
2022/11/01 11:17:44;;;;;;;8.85;2.60;;;;;;;18.91;49.66;101428.78;6219320;23;20004;-63
2022/11/01 11:20:11;;;;;;;12.90;2.97;;;;;;;19.19;48.44;101415.88;6246201;23;20057;-63
2022/11/01 11:22:39;;;;;;;13.65;2.70;;;;;;;19.31;48.12;101423.69;6246387;23;20101;-64
2022/11/01 11:25:07;;;;;;;11.10;2.75;;;;;;;19.50;48.49;101426.97;6246329;23;20004;-64
2022/11/01 11:27:33;;;;;;;9.75;2.65;;;;;;;19.76;48.21;101421.19;6245638;23;20146;-63
2022/11/01 11:30:04;;;;;;;10.15;2.83;;;;;;;19.83;47.18;101438.94;6245952;23;20015;-64
2022/11/01 11:32:34;;;;;;;8.15;2.55;;;;;;;19.87;47.43;101423.66;6246248;23;20326;-63
2022/11/01 11:35:03;;;;;;;13.90;2.88;;;;;;;19.65;47.03;101418.69;6246017;23;20419;-64
2022/11/01 11:37:33;;;;;;;12.02;2.80;;;;;;;19.40;47.56;101418.22;6245901;23;20011;-63
2022/11/01 11:40:16;;;;;;;12.88;2.60;;;;;;;19.77;47.49;101409.53;6245979;23;20004;-63
2022/11/01 11:42:41;;;;;;;11.50;2.85;;;;;;;19.87;47.04;101415.63;6219063;23;20431;-63
2022/11/01 11:45:28;;;;;;;10.05;2.53;;;;;;;20.15;47.45;101416.88;6246279;23;20032;-64